createdAt,value
2022-09-16T00:20:09.129Z,9.90
2022-09-16T00:39:49.519Z,9.80
2022-09-16T00:45:06.245Z,9.80
2022-09-16T00:47:55.640Z,9.70
2022-09-16T00:50:47.136Z,9.70
2022-09-16T00:53:20.728Z,9.70
2022-09-16T00:55:50.103Z,9.60
2022-09-16T00:58:36.805Z,10.70
2022-09-16T01:01:05.946Z,9.60
2022-09-16T01:03:39.673Z,9.60
2022-09-16T01:11:01.843Z,9.60
2022-09-16T01:16:35.528Z,9.60
2022-09-16T01:19:33.929Z,9.60
2022-09-16T01:22:40.681Z,9.60
2022-09-16T01:25:47.362Z,9.60
2022-09-16T01:28:54.106Z,9.60
2022-09-16T01:31:36.693Z,9.70
2022-09-16T01:34:31.351Z,9.60
2022-09-16T01:37:39.109Z,9.50
2022-09-16T01:40:16.670Z,9.60
2022-09-16T01:43:25.838Z,9.60
2022-09-16T01:46:32.896Z,9.50
2022-09-16T01:49:08.528Z,9.50
2022-09-16T01:52:15.339Z,9.50
2022-09-16T01:54:50.021Z,9.50
2022-09-16T01:57:45.977Z,9.50
2022-09-16T02:00:14.734Z,9.50
2022-09-16T02:03:03.808Z,9.50
2022-09-16T02:05:54.008Z,9.50
2022-09-16T02:08:27.289Z,9.50
2022-09-16T02:10:59.767Z,9.40
2022-09-16T02:13:33.483Z,9.40
2022-09-16T02:16:05.335Z,9.40
2022-09-16T02:18:36.894Z,9.40
2022-09-16T02:21:07.569Z,9.40
2022-09-16T02:23:42.099Z,9.40
2022-09-16T02:26:14.828Z,9.40
2022-09-16T02:28:44.587Z,9.40
2022-09-16T02:31:15.973Z,9.40
2022-09-16T02:33:53.677Z,9.40
2022-09-16T02:36:23.517Z,9.40
2022-09-16T02:38:56.558Z,9.40
2022-09-16T02:41:24.183Z,9.40
2022-09-16T02:46:41.260Z,9.30
2022-09-16T02:49:18.982Z,9.30
2022-09-16T02:52:04.703Z,9.30
2022-09-16T02:54:51.401Z,9.50
2022-09-16T02:57:18.230Z,8.10
2022-09-16T02:59:45.908Z,9.30
2022-09-16T03:02:13.441Z,9.20
2022-09-16T03:07:10.709Z,9.20
2022-09-16T03:09:42.366Z,9.20
2022-09-16T03:12:36.570Z,9.10
2022-09-16T03:15:37.494Z,9.10
2022-09-16T03:18:32.167Z,9.20
2022-09-16T03:21:25.260Z,9.20
2022-09-16T03:24:32.005Z,9.10
2022-09-16T03:27:20.883Z,9.10
2022-09-16T03:29:56.429Z,9.10
2022-09-16T03:32:30.541Z,9.10
2022-09-16T03:35:05.949Z,9.10
2022-09-16T03:37:34.523Z,9.00
2022-09-16T03:40:09.034Z,9.10
2022-09-16T03:47:31.414Z,9.10
2022-09-16T03:49:58.390Z,9.00
2022-09-16T03:54:52.926Z,9.10
2022-09-16T04:07:10.153Z,9.30
2022-09-16T04:09:37.487Z,9.30
2022-09-16T04:12:07.697Z,9.40
2022-09-16T04:19:33.151Z,9.40
2022-09-16T04:22:00.162Z,9.40
2022-09-16T04:29:38.202Z,9.30
2022-09-16T04:32:22.983Z,9.20
2022-09-16T04:43:06.678Z,9.00
2022-09-16T04:45:39.619Z,9.00
2022-09-16T05:01:20.627Z,8.60
2022-09-16T05:04:49.928Z,6.90
2022-09-16T05:11:17.339Z,8.60
2022-09-16T05:16:22.651Z,8.60
2022-09-16T05:19:01.851Z,8.60
2022-09-16T05:24:00.974Z,8.70
2022-09-16T05:26:30.161Z,8.70
2022-09-16T05:29:00.454Z,8.80
2022-09-16T05:31:30.632Z,8.80
2022-09-16T05:34:19.124Z,8.90
2022-09-16T05:36:47.998Z,8.90
2022-09-16T05:39:23.298Z,9.00
2022-09-16T05:41:55.502Z,9.10
2022-09-16T05:44:26.741Z,9.20
2022-09-16T05:46:59.580Z,9.20
2022-09-16T05:52:00.482Z,9.30
2022-09-16T05:54:28.227Z,9.40
2022-09-16T05:59:34.632Z,9.90
2022-09-16T06:09:31.354Z,9.70
2022-09-16T06:14:31.487Z,10.00
2022-09-16T06:17:07.141Z,10.00
2022-09-16T06:19:48.407Z,10.10
2022-09-16T06:22:22.065Z,10.10
2022-09-16T06:27:49.592Z,10.10
2022-09-16T06:36:23.518Z,10.00
2022-09-16T06:39:26.640Z,9.90
2022-09-16T06:47:50.195Z,11.50
2022-09-16T06:50:37.870Z,10.10
2022-09-16T06:56:44.521Z,10.30
2022-09-16T06:59:26.686Z,10.40
2022-09-16T07:01:58.331Z,10.70
2022-09-16T07:04:53.722Z,10.60
2022-09-16T07:09:53.415Z,10.50
2022-09-16T07:14:59.273Z,10.60
2022-09-16T07:23:03.324Z,11.20
2022-09-16T07:31:00.982Z,11.00
2022-09-16T07:36:08.316Z,10.70
2022-09-16T07:41:14.633Z,10.80
2022-09-16T07:44:08.214Z,11.00
2022-09-16T07:46:59.417Z,11.30
2022-09-16T07:54:30.472Z,11.20
2022-09-16T08:02:00.311Z,10.70
2022-09-16T08:07:56.934Z,10.70
2022-09-16T08:24:25.936Z,10.00
2022-09-16T08:39:55.663Z,10.50
2022-09-16T08:43:13.728Z,10.70
2022-09-16T08:46:12.722Z,9.40
2022-09-16T08:54:15.322Z,11.00
2022-09-16T08:56:44.962Z,11.40
2022-09-16T08:59:20.104Z,11.50
2022-09-16T09:02:02.918Z,11.70
2022-09-16T09:04:33.855Z,11.70
2022-09-16T09:07:40.642Z,11.70
2022-09-16T09:10:44.835Z,11.50
2022-09-16T09:13:51.590Z,11.50
2022-09-16T09:16:58.325Z,11.50
2022-09-16T09:20:07.194Z,11.30
2022-09-16T09:23:14.007Z,11.30
2022-09-16T09:25:55.396Z,11.40
2022-09-16T09:29:04.093Z,11.60
2022-09-16T09:32:00.511Z,11.50
2022-09-16T09:35:07.330Z,12.30
2022-09-16T09:38:14.128Z,12.20
2022-09-16T09:41:01.055Z,12.20
2022-09-16T09:43:55.748Z,12.00
2022-09-16T09:46:45.497Z,12.00
2022-09-16T09:49:35.101Z,11.80
2022-09-16T09:52:12.692Z,11.70
2022-09-16T09:54:44.901Z,10.30
2022-09-16T09:57:18.276Z,11.70
2022-09-16T09:59:49.541Z,10.40
2022-09-16T10:02:19.291Z,11.60
2022-09-16T10:04:47.020Z,11.40
2022-09-16T10:07:18.385Z,11.40
2022-09-16T10:09:54.960Z,11.40
2022-09-16T10:12:37.464Z,11.30
2022-09-16T10:15:05.242Z,11.40
2022-09-16T10:17:33.053Z,11.50
2022-09-16T10:20:07.326Z,11.70
2022-09-16T10:28:37.312Z,12.00
2022-09-16T10:28:41.302Z,12.00
2022-09-16T10:31:21.771Z,12.00
2022-09-16T10:36:32.440Z,11.90
2022-09-16T10:39:10.078Z,11.90
2022-09-16T10:41:46.568Z,12.00
2022-09-16T10:44:30.110Z,12.20
2022-09-16T10:47:09.266Z,12.30
2022-09-16T10:50:12.603Z,12.30
2022-09-16T10:52:58.124Z,12.30
2022-09-16T10:55:48.459Z,12.30
2022-09-16T10:58:30.089Z,12.30
2022-09-16T11:01:24.482Z,12.40
2022-09-16T11:04:43.000Z,12.50
2022-09-16T11:07:50.702Z,12.60
2022-09-16T11:11:11.090Z,12.90
2022-09-16T11:14:28.501Z,13.30
2022-09-16T11:17:41.579Z,13.60
2022-09-16T11:20:56.558Z,14.00
2022-09-16T11:24:00.873Z,14.00
2022-09-16T11:27:10.409Z,14.10
2022-09-16T11:30:36.753Z,13.90
2022-09-16T11:33:49.126Z,13.40
2022-09-16T11:37:02.245Z,12.80
2022-09-16T11:40:17.483Z,12.20
2022-09-16T11:43:17.405Z,11.60
2022-09-16T11:46:24.251Z,11.10
2022-09-16T11:49:30.994Z,10.70
2022-09-16T11:52:37.762Z,10.50
2022-09-16T11:55:29.917Z,10.40
2022-09-16T11:58:02.353Z,8.10
2022-09-16T12:00:46.438Z,10.60
2022-09-16T12:03:47.788Z,10.90
2022-09-16T12:06:22.572Z,11.40
2022-09-16T12:08:58.794Z,11.90
2022-09-16T12:11:49.100Z,12.40
2022-09-16T12:14:38.327Z,12.60
2022-09-16T12:17:32.888Z,12.80
2022-09-16T12:20:31.076Z,10.70
2022-09-16T12:23:19.149Z,13.10
2022-09-16T12:26:25.946Z,13.60
2022-09-16T12:29:07.166Z,13.60
2022-09-16T12:32:00.318Z,13.60
2022-09-16T12:34:39.653Z,13.90
2022-09-16T12:37:46.381Z,13.90
2022-09-16T12:40:20.657Z,14.20
2022-09-16T12:43:27.485Z,14.20
2022-09-16T12:46:35.789Z,14.00
2022-09-16T12:49:42.786Z,14.10
2022-09-16T12:52:40.070Z,14.10
2022-09-16T12:55:52.797Z,14.00
2022-09-16T12:58:59.797Z,13.90
2022-09-16T13:01:35.612Z,13.90
2022-09-16T13:04:32.551Z,13.90
2022-09-16T13:07:30.511Z,13.70
2022-09-16T13:10:08.414Z,13.40
2022-09-16T13:12:43.758Z,13.70
2022-09-16T13:15:34.996Z,12.90
2022-09-16T13:18:42.193Z,12.80
2022-09-16T13:21:37.622Z,12.40
2022-09-16T13:24:47.119Z,12.30
2022-09-16T13:27:34.696Z,12.10
2022-09-16T13:30:38.182Z,12.10
2022-09-16T13:33:28.832Z,12.10
2022-09-16T13:36:28.020Z,12.20
2022-09-16T13:38:57.756Z,12.20
2022-09-16T13:41:44.475Z,12.30
2022-09-16T13:44:51.561Z,12.30
2022-09-16T13:47:30.085Z,12.40
2022-09-16T13:50:21.446Z,12.50
2022-09-16T13:52:49.188Z,12.50
2022-09-16T13:55:22.436Z,12.60
2022-09-16T13:58:29.270Z,12.50
2022-09-16T14:01:48.927Z,12.60
2022-09-16T14:05:02.931Z,9.90
2022-09-16T14:08:02.508Z,12.90
2022-09-16T14:10:40.895Z,13.10
2022-09-16T14:13:36.216Z,13.00
2022-09-16T14:18:33.335Z,13.00
2022-09-16T14:21:25.690Z,13.10
2022-09-16T14:26:24.333Z,13.50
2022-09-16T14:29:03.351Z,13.60
2022-09-16T14:31:33.749Z,13.60
2022-09-16T14:34:07.585Z,13.40
2022-09-16T14:36:38.923Z,11.90
2022-09-16T14:39:26.795Z,13.70
2022-09-16T14:41:59.199Z,13.60
2022-09-16T14:44:51.229Z,13.10
2022-09-16T14:47:53.619Z,12.50
2022-09-16T14:50:25.409Z,14.20
2022-09-16T14:53:03.209Z,13.90
2022-09-16T14:55:36.141Z,13.50
2022-09-16T14:58:03.842Z,13.20
2022-09-16T15:00:38.621Z,13.20
2022-09-16T15:03:18.158Z,12.10
2022-09-16T15:05:47.224Z,13.00
2022-09-16T15:08:40.182Z,12.90
2022-09-16T15:11:43.632Z,13.00
2022-09-16T15:16:48.641Z,13.20
2022-09-16T15:19:27.042Z,13.00
2022-09-16T15:21:54.644Z,13.10
2022-09-16T15:24:29.108Z,13.20
2022-09-16T15:26:57.677Z,13.10
2022-09-16T15:29:49.635Z,12.90
2022-09-16T15:32:21.062Z,12.80
2022-09-16T15:34:49.732Z,12.80
2022-09-16T15:37:33.535Z,12.60
2022-09-16T15:40:43.167Z,12.60
2022-09-16T15:43:35.801Z,12.50
2022-09-16T15:46:08.193Z,11.70
2022-09-16T15:48:43.198Z,12.30
2022-09-16T15:51:41.141Z,12.30
2022-09-16T15:54:33.464Z,12.30
2022-09-16T15:57:09.771Z,12.30
2022-09-16T15:59:41.796Z,12.30
2022-09-16T16:02:49.605Z,12.30
2022-09-16T16:05:19.777Z,12.20
2022-09-16T16:08:09.992Z,12.20
2022-09-16T16:10:47.953Z,12.10
2022-09-16T16:13:16.615Z,12.00
2022-09-16T16:18:32.957Z,11.80
2022-09-16T16:24:36.013Z,11.60
2022-09-16T16:27:06.736Z,11.50
2022-09-16T16:32:21.133Z,11.40
2022-09-16T16:34:50.555Z,10.50
2022-09-16T16:37:44.567Z,11.10
2022-09-16T16:40:08.069Z,11.10
2022-09-16T16:47:30.528Z,11.00
2022-09-16T16:52:25.940Z,10.90
2022-09-16T17:12:26.894Z,10.80
2022-09-16T17:14:54.208Z,10.70
2022-09-16T17:17:21.383Z,13.80
2022-09-16T17:29:48.052Z,10.70
2022-09-16T17:32:16.310Z,10.60
2022-09-16T17:49:31.212Z,10.70
2022-09-16T18:06:46.365Z,10.60
2022-09-16T18:14:12.397Z,10.60
2022-09-16T18:16:39.904Z,10.70
2022-09-16T18:21:35.171Z,10.50
2022-09-16T18:24:03.964Z,9.00
2022-09-16T18:26:34.832Z,10.50
2022-09-16T18:29:11.133Z,10.50
2022-09-16T18:31:48.773Z,10.50
2022-09-16T18:34:19.442Z,10.50
2022-09-16T18:44:37.037Z,10.40
2022-09-16T18:57:09.013Z,10.30
2022-09-16T18:59:52.692Z,10.20
2022-09-16T19:02:27.392Z,10.30
2022-09-16T19:09:55.423Z,10.20
2022-09-16T19:14:50.159Z,10.20
2022-09-16T19:17:19.656Z,10.30
2022-09-16T19:19:50.842Z,10.20
2022-09-16T19:22:18.654Z,10.20
2022-09-16T19:27:13.897Z,10.20
2022-09-16T19:29:45.340Z,10.20
2022-09-16T19:32:15.636Z,10.20
2022-09-16T19:34:43.463Z,10.00
2022-09-16T19:45:06.422Z,10.10
2022-09-16T20:00:32.696Z,9.90
2022-09-16T20:10:33.176Z,9.90
2022-09-16T20:17:55.928Z,9.90
2022-09-16T20:20:39.251Z,9.90
2022-09-16T20:28:01.279Z,9.90
2022-09-16T20:30:28.288Z,9.90
2022-09-16T20:32:58.842Z,9.80
2022-09-16T20:35:40.146Z,9.80
2022-09-16T20:38:15.302Z,9.70
2022-09-16T20:43:12.739Z,9.70
2022-09-16T20:45:40.596Z,9.70
2022-09-16T20:50:51.090Z,9.70
2022-09-16T21:05:50.466Z,9.70
2022-09-16T21:10:44.804Z,9.70
2022-09-16T21:13:11.828Z,9.70
2022-09-16T21:15:39.265Z,9.70
2022-09-16T21:27:56.079Z,9.70
2022-09-16T21:30:23.132Z,9.70
2022-09-16T21:40:18.514Z,9.70
2022-09-16T21:42:48.801Z,9.70
2022-09-16T22:00:07.560Z,9.70
2022-09-16T22:07:29.553Z,9.70
2022-09-16T22:14:51.316Z,9.80
2022-09-16T22:34:36.483Z,9.80
2022-09-16T22:39:30.773Z,9.80
2022-09-16T22:54:18.769Z,9.70
2022-09-16T22:59:20.840Z,9.70
2022-09-16T23:01:51.514Z,9.70
2022-09-16T23:11:42.536Z,9.60
2022-09-16T23:14:13.231Z,9.60
2022-09-16T23:19:10.799Z,9.60
2022-09-16T23:21:38.411Z,9.60
2022-09-16T23:24:11.778Z,9.50
2022-09-16T23:26:39.172Z,9.50
2022-09-16T23:29:08.512Z,9.50
2022-09-16T23:31:40.436Z,9.50
2022-09-16T23:34:12.123Z,9.60
2022-09-16T23:39:07.843Z,9.60
2022-09-16T23:41:35.434Z,9.50
2022-09-16T23:44:03.504Z,9.60
2022-09-16T23:48:59.151Z,9.60
2022-09-16T23:51:28.743Z,9.70
2022-09-16T23:53:57.405Z,9.80
2022-09-16T23:58:52.250Z,9.90
